Sinjhoro Weather



Sinjhoro's Current Weather

Temprature 25o smoke

smoke

Rain: 0 %

Min Temprature25o
Max Temprature25o
Humidity94
Wind Speed3.1 m/h
Sun Rise05:35:11
Sun Set19:08:13
Current Time: 24-May-2019 03:58:17
Lat/Lon: 26.03, 68.81




Sinjhoro's Geo Location



Sinjhoro's Weather Forecast

Time Overall Temp Min Temp Max Temp Humidity Wind Speed Rain
24-May-2019 (Fri)
05:00:00 clear sky 25.720 25.720 33.062 34 3.77 m/h 0 %
08:00:00 clear sky 29.740 29.740 35.250 31 3.2 m/h 0 %
11:00:00 clear sky 36.880 36.880 40.550 21 3.15 m/h 0 %
14:00:00 scattered clouds 40.010 40.010 41.850 18 2.37 m/h 0 %
17:00:00 scattered clouds 42.450 42.450 42.450 16 2.33 m/h 0 %
20:00:00 clear sky 39.589 39.589 39.589 17 2.21 m/h 0 %
23:00:00 clear sky 37.089 37.089 37.089 29 6.06 m/h 0 %
25-May-2019 (Sat)
02:00:00 few clouds 34.889 34.889 34.889 30 4.14 m/h 0 %
05:00:00 scattered clouds 33.220 33.220 33.220 34 2.75 m/h 0 %
08:00:00 broken clouds 37.338 37.338 37.338 17 3.03 m/h 0 %
11:00:00 broken clouds 42.082 42.082 42.082 10 3.41 m/h 0 %
14:00:00 scattered clouds 43.980 43.980 43.980 8 2.33 m/h 0 %
17:00:00 overcast clouds 44.335 44.335 44.335 6 3.44 m/h 0 %
20:00:00 overcast clouds 40.287 40.287 40.287 9 1.25 m/h 0 %
23:00:00 scattered clouds 37.518 37.518 37.518 13 6.29 m/h 0 %
26-May-2019 (Sun)
02:00:00 clear sky 35.099 35.099 35.099 20 4.46 m/h 0 %
05:00:00 clear sky 32.550 32.550 32.550 34 4.22 m/h 0 %
08:00:00 clear sky 34.250 34.250 34.250 38 4.65 m/h 0 %
11:00:00 clear sky 41.479 41.479 41.479 17 3.66 m/h 0 %
14:00:00 clear sky 45.406 45.406 45.406 8 4.43 m/h 0 %
17:00:00 clear sky 45.650 45.650 45.650 5 2.78 m/h 0 %
20:00:00 clear sky 41.250 41.250 41.250 8 4.44 m/h 0 %
23:00:00 clear sky 37.450 37.450 37.450 19 6.75 m/h 0 %
27-May-2019 (Mon)
02:00:00 clear sky 34.350 34.350 34.350 32 6.42 m/h 0 %
05:00:00 clear sky 31.950 31.950 31.950 46 5.42 m/h 0 %
08:00:00 clear sky 34.150 34.150 34.150 42 4.92 m/h 0 %
11:00:00 clear sky 42.260 42.260 42.260 15 2.65 m/h 0 %
14:00:00 clear sky 45.940 45.940 45.940 6 2.31 m/h 0 %
17:00:00 clear sky 46.550 46.550 46.550 5 2.42 m/h 0 %
20:00:00 clear sky 41.814 41.814 41.814 9 6.99 m/h 0 %
23:00:00 clear sky 37.787 37.787 37.787 20 6.68 m/h 0 %
28-May-2019 (Tue)
02:00:00 clear sky 35.491 35.491 35.491 25 3.95 m/h 0 %
05:00:00 clear sky 33.014 33.014 33.014 35 3.67 m/h 0 %
08:00:00 clear sky 35.793 35.793 35.793 31 3.06 m/h 0 %
11:00:00 clear sky 43.322 43.322 43.322 12 1.58 m/h 0 %
14:00:00 clear sky 46.894 46.894 46.894 5 1.69 m/h 0 %
17:00:00 clear sky 47.134 47.134 47.134 4 2.32 m/h 0 %
20:00:00 clear sky 40.187 40.187 40.187 22 8.99 m/h 0 %
23:00:00 clear sky 38.058 38.058 38.058 22 7.09 m/h 0 %
29-May-2019 (Wed)
02:00:00 clear sky 36.959 36.959 36.959 22 6.42 m/h 0 %

Famous Cities (60)